Time;durP1;ratioP1;P1;durP2;ratioP2;P2;SDS_P1;SDS_P2;PMS_P1;PMS_P2;Temp;Humidity;BMP_temperature;BMP_pressure;BME280_temperature;BME280_humidity;BME280_pressure;Samples;Min_cycle;Max_cycle;Signal;HPM_P1;HPM_P2
2023/07/20 00:01:18;;;;;;;10.80;8.30;;;;;;;16.59;72.91;96524.17;105519;1265;99790;-78
2023/07/20 00:03:54;;;;;;;12.00;8.10;;;;;;;16.48;73.23;96512.91;105897;1258;100226;-78
2023/07/20 00:06:25;;;;;;;10.00;7.80;;;;;;;16.43;73.34;96513.89;105978;1260;98901;-77
2023/07/20 00:09:05;;;;;;;11.10;7.80;;;;;;;16.42;73.68;96525.01;105860;1260;96067;-78
2023/07/20 00:12:10;;;;;;;10.70;8.60;;;;;;;16.42;73.68;96528.11;105585;1263;97175;-74
2023/07/20 00:15:00;;;;;;;11.50;8.40;;;;;;;16.42;73.71;96520.16;104995;1275;99758;-75
2023/07/20 00:18:06;;;;;;;12.10;7.80;;;;;;;16.41;73.66;96513.30;104782;1271;100185;-76
2023/07/20 00:21:15;;;;;;;11.40;7.90;;;;;;;16.37;73.67;96505.11;103756;1282;99322;-75
2023/07/20 00:23:42;;;;;;;10.90;7.60;;;;;;;16.32;73.60;96506.45;103924;1283;97138;-76
2023/07/20 00:26:08;;;;;;;10.30;7.70;;;;;;;16.27;73.64;96506.02;103972;1290;96350;-74
2023/07/20 00:28:35;;;;;;;11.80;7.60;;;;;;;16.25;73.77;96505.02;103846;1282;96834;-74
2023/07/20 00:31:02;;;;;;;10.40;7.20;;;;;;;16.21;73.90;96506.32;104031;1293;96451;-72
2023/07/20 00:33:29;;;;;;;10.80;7.60;;;;;;;16.18;73.90;96505.39;103790;1281;96069;-74
2023/07/20 00:35:55;;;;;;;10.00;7.80;;;;;;;16.16;73.92;96503.34;104056;1276;96002;-74
2023/07/20 00:38:22;;;;;;;11.30;7.50;;;;;;;16.15;74.00;96499.84;104433;1269;96261;-73
2023/07/20 00:40:49;;;;;;;11.30;7.90;;;;;;;16.14;74.08;96498.32;104916;1268;95871;-78
2023/07/20 00:43:15;;;;;;;10.90;7.80;;;;;;;16.08;74.13;96495.63;104987;1263;96252;-77
2023/07/20 00:45:42;;;;;;;16.60;8.30;;;;;;;15.99;74.06;96497.02;105161;1265;96098;-73
2023/07/20 00:48:09;;;;;;;11.80;7.40;;;;;;;15.88;74.15;96495.51;105109;1263;97141;-74
2023/07/20 00:50:36;;;;;;;11.40;7.70;;;;;;;15.78;74.32;96497.66;105096;1263;96533;-74
2023/07/20 00:53:04;;;;;;;10.50;7.50;;;;;;;15.70;74.37;96501.91;105908;1260;95942;-75
2023/07/20 00:55:31;;;;;;;11.70;7.60;;;;;;;15.63;74.70;96500.80;106054;1256;97403;-74
2023/07/20 00:57:59;;;;;;;15.00;7.70;;;;;;;15.58;75.02;96503.88;106627;1253;95926;-73
2023/07/20 01:00:26;;;;;;;12.90;7.80;;;;;;;15.55;75.12;96501.30;107509;1253;96129;-75
2023/07/20 01:02:52;;;;;;;11.60;8.10;;;;;;;15.53;75.32;96496.36;107483;1244;96740;-76
2023/07/20 01:05:19;;;;;;;9.90;7.90;;;;;;;15.54;75.50;96495.45;107447;1245;96158;-75
2023/07/20 01:07:55;;;;;;;9.10;7.80;;;;;;;15.56;75.50;96492.48;107647;1252;95888;-76
2023/07/20 01:10:37;;;;;;;10.80;6.70;;;;;;;15.52;75.49;96491.90;107530;1252;100326;-76
2023/07/20 01:13:06;;;;;;;12.10;8.30;;;;;;;15.50;75.47;96488.02;107221;1251;98980;-76
2023/07/20 01:15:36;;;;;;;11.60;8.30;;;;;;;15.47;75.55;96489.27;107063;1253;96030;-77
2023/07/20 02:43:43;;;;;;;12.40;8.10;;;;;;;15.68;77.28;96523.95;105404;1266;96166;-78
2023/07/20 02:46:50;;;;;;;10.00;7.80;;;;;;;15.68;77.51;96515.95;107190;1249;96297;-76
2023/07/20 04:48:59;;;;;;;15.90;9.90;;;;;;;16.98;78.13;96626.55;104540;1275;99125;-80
2023/07/20 04:51:34;;;;;;;14.20;10.10;;;;;;;16.96;78.21;96631.61;106912;1248;100441;-76
2023/07/20 04:54:05;;;;;;;10.20;6.00;;;;;;;16.94;77.97;96630.29;106891;1249;98715;-81
2023/07/20 04:57:13;;;;;;;7.70;5.00;;;;;;;16.89;77.00;96627.41;106644;1254;96784;-76
2023/07/20 05:00:21;;;;;;;8.40;4.90;;;;;;;16.89;76.37;96625.73;105937;1259;95927;-77
2023/07/20 05:03:28;;;;;;;6.80;4.80;;;;;;;16.95;76.11;96626.54;105982;1257;98433;-75
2023/07/20 05:06:34;;;;;;;7.10;4.50;;;;;;;17.04;75.89;96623.27;105671;1260;100432;-77
2023/07/20 05:09:40;;;;;;;5.40;4.20;;;;;;;17.12;75.49;96631.09;104992;1270;98722;-75
2023/07/20 05:12:37;;;;;;;7.40;3.90;;;;;;;17.16;74.99;96640.84;104972;1269;95966;-77
2023/07/20 05:59:24;;;;;;;9.80;5.30;;;;;;;18.35;69.97;96690.76;105727;1270;94347;-74
2023/07/20 06:01:51;;;;;;;7.90;5.30;;;;;;;18.24;69.84;96688.10;107403;1250;98334;-74
2023/07/20 06:04:17;;;;;;;10.60;5.50;;;;;;;18.19;70.03;96686.27;106952;1247;97110;-83
2023/07/20 06:06:43;;;;;;;6.50;5.10;;;;;;;18.23;70.07;96690.18;107033;1246;95827;-83
2023/07/20 06:09:11;;;;;;;8.70;5.40;;;;;;;18.31;69.85;96682.79;107204;1246;95912;-82
2023/07/20 06:11:39;;;;;;;6.90;5.10;;;;;;;18.39;69.59;96678.49;106872;1249;99463;-85
2023/07/20 06:14:05;;;;;;;11.00;5.30;;;;;;;18.44;69.48;96673.68;107619;1240;96715;-87
2023/07/20 06:16:32;;;;;;;13.30;6.00;;;;;;;18.47;69.00;96674.92;107646;1243;95855;-84
2023/07/20 06:19:00;;;;;;;8.00;5.40;;;;;;;18.53;68.96;96679.88;107735;1243;96852;-81
2023/07/20 06:21:27;;;;;;;9.00;5.50;;;;;;;18.61;68.92;96684.40;107275;1253;96033;-82
2023/07/20 06:23:53;;;;;;;8.20;5.40;;;;;;;18.65;68.82;96680.28;107533;1239;96215;-80
2023/07/20 06:26:20;;;;;;;8.20;5.10;;;;;;;18.67;68.63;96683.73;107583;1243;95837;-86
2023/07/20 06:28:47;;;;;;;6.50;5.10;;;;;;;18.73;68.34;96686.98;107414;1245;97194;-81
2023/07/20 06:31:13;;;;;;;7.90;5.20;;;;;;;18.73;68.49;96682.98;107782;1242;95831;-85
2023/07/20 06:33:39;;;;;;;8.10;5.20;;;;;;;18.77;68.13;96679.31;107496;1247;95758;-86
2023/07/20 06:36:06;;;;;;;10.80;5.00;;;;;;;18.82;67.70;96687.10;107672;1243;96095;-84
2023/07/20 06:38:32;;;;;;;9.20;5.20;;;;;;;18.84;67.62;96688.84;107587;1243;96782;-87
2023/07/20 06:40:58;;;;;;;8.00;4.80;;;;;;;18.87;67.48;96687.17;107650;1243;97136;-84
2023/07/20 06:43:24;;;;;;;8.50;4.80;;;;;;;18.88;67.60;96682.48;107698;1238;95828;-84
2023/07/20 06:45:53;;;;;;;11.80;5.00;;;;;;;18.89;67.24;96676.34;107744;1242;96820;-81
2023/07/20 06:48:19;;;;;;;6.00;4.60;;;;;;;18.86;66.90;96674.17;107582;1243;95836;-81
2023/07/20 06:50:45;;;;;;;5.80;4.30;;;;;;;18.84;66.91;96676.25;107723;1238;96147;-81
2023/07/20 06:53:13;;;;;;;10.30;4.60;;;;;;;18.87;67.15;96678.80;107677;1243;95822;-81
2023/07/20 06:55:39;;;;;;;9.60;5.00;;;;;;;18.89;66.79;96678.97;107592;1245;95844;-82
2023/07/20 06:58:06;;;;;;;8.40;4.30;;;;;;;18.93;66.69;96678.63;107725;1239;95913;-85
2023/07/20 07:00:32;;;;;;;8.60;4.40;;;;;;;18.97;66.59;96670.77;107675;1243;96948;-79
2023/07/20 07:03:19;;;;;;;6.30;4.50;;;;;;;19.00;66.52;96669.94;108168;1240;96823;-73
2023/07/20 07:06:27;;;;;;;7.90;4.70;;;;;;;18.99;66.20;96665.45;107551;1251;100226;-70
2023/07/20 07:09:34;;;;;;;5.40;4.10;;;;;;;19.01;65.95;96667.85;106441;1264;99129;-74
2023/07/20 07:12:41;;;;;;;7.20;3.80;;;;;;;19.01;65.47;96666.80;105668;1262;96367;-75
2023/07/20 07:15:48;;;;;;;7.20;3.90;;;;;;;19.07;65.37;96663.60;105056;1268;95899;-72
2023/07/20 07:19:05;;;;;;;7.80;4.70;;;;;;;19.17;65.49;96659.65;104685;1270;100798;-75
2023/07/20 07:31:36;;;;;;;7.70;4.20;;;;;;;19.54;64.47;96656.34;101831;1289;635164;-74
2023/07/20 07:34:04;;;;;;;5.30;3.20;;;;;;;19.60;64.68;96656.77;104501;1268;95900;-75
2023/07/20 07:36:34;;;;;;;5.60;3.20;;;;;;;19.69;64.54;96656.20;104219;1273;95900;-74
2023/07/20 07:39:02;;;;;;;8.50;4.10;;;;;;;19.77;64.53;96656.69;104188;1269;98543;-74
2023/07/20 07:41:30;;;;;;;6.40;3.40;;;;;;;19.81;64.34;96660.14;104562;1267;101299;-74
2023/07/20 07:43:57;;;;;;;6.80;4.10;;;;;;;19.86;63.85;96657.25;104729;1264;168642;-74
2023/07/20 07:46:25;;;;;;;8.10;4.00;;;;;;;19.96;64.12;96659.29;104902;1259;97312;-74
2023/07/20 07:48:52;;;;;;;7.50;3.50;;;;;;;20.06;63.44;96661.05;104889;1260;95947;-80
2023/07/20 07:51:20;;;;;;;4.80;3.30;;;;;;;20.22;63.22;96661.22;104838;1259;98455;-82
2023/07/20 07:53:49;;;;;;;3.80;2.80;;;;;;;20.44;62.59;96662.63;105051;1259;100362;-80
2023/07/20 07:56:17;;;;;;;4.90;3.10;;;;;;;20.74;62.44;96656.02;104929;1260;108763;-81
2023/07/20 07:58:45;;;;;;;6.20;2.70;;;;;;;21.05;62.15;96653.06;104828;1257;95979;-83
2023/07/20 08:01:12;;;;;;;4.00;2.60;;;;;;;21.48;61.39;96652.23;104955;1260;96038;-84
2023/07/20 08:03:40;;;;;;;5.90;2.90;;;;;;;21.97;61.43;96653.55;105009;1256;99923;-84
2023/07/20 08:06:08;;;;;;;5.20;2.90;;;;;;;22.40;60.49;96651.87;104995;1261;100377;-83
2023/07/20 08:08:35;;;;;;;5.20;2.80;;;;;;;22.82;59.99;96653.81;105116;1256;100292;-80
2023/07/20 08:11:35;;;;;;;4.10;2.80;;;;;;;23.25;59.83;96655.02;105004;1260;95814;-73
2023/07/20 08:14:20;;;;;;;5.30;2.90;;;;;;;23.77;58.72;96659.24;105083;1256;95870;-73
2023/07/20 08:16:56;;;;;;;2.80;2.40;;;;;;;24.26;57.45;96663.13;105069;1260;100028;-74
2023/07/20 08:19:27;;;;;;;3.80;2.60;;;;;;;24.64;56.81;96662.61;105032;1260;100284;-74
2023/07/20 08:21:57;;;;;;;4.40;2.80;;;;;;;24.94;56.26;96659.01;104954;1260;98919;-75
2023/07/20 08:24:28;;;;;;;3.00;2.60;;;;;;;25.22;55.35;96664.47;104960;1259;96803;-73
2023/07/20 08:26:56;;;;;;;4.30;2.70;;;;;;;25.46;54.69;96669.61;104806;1264;97272;-75
2023/07/20 08:29:24;;;;;;;3.60;2.60;;;;;;;25.46;54.37;96677.73;104683;1264;99606;-81
2023/07/20 08:31:55;;;;;;;4.70;2.80;;;;;;;25.06;53.79;96677.59;104633;1268;100441;-82
2023/07/20 08:34:25;;;;;;;3.60;2.60;;;;;;;24.72;53.93;96678.42;104574;1266;99935;-81
2023/07/20 08:36:59;;;;;;;4.10;2.80;;;;;;;24.52;53.41;96685.64;104632;1264;97262;-82
2023/07/20 08:39:27;;;;;;;5.50;2.90;;;;;;;24.34;53.03;96685.08;104557;1264;97439;-83
2023/07/20 08:41:56;;;;;;;6.10;3.10;;;;;;;24.24;52.93;96687.52;104561;1262;101321;-85
2023/07/20 08:44:27;;;;;;;4.90;2.50;;;;;;;24.09;53.12;96691.33;104545;1263;100018;-82
2023/07/20 08:46:55;;;;;;;6.40;3.00;;;;;;;23.95;52.99;96690.49;104335;1268;100504;-82
2023/07/20 08:49:23;;;;;;;3.50;2.90;;;;;;;23.81;53.64;96691.08;104290;1271;96780;-82
2023/07/20 08:51:53;;;;;;;5.00;3.20;;;;;;;23.78;53.31;96686.63;104606;1262;95993;-82
2023/07/20 08:54:21;;;;;;;5.60;2.90;;;;;;;23.77;53.57;96685.83;104600;1267;101182;-83
2023/07/20 11:17:12;;;;;;;2.50;2.20;;;;;;;25.68;46.45;96665.73;101801;1296;635292;-76
2023/07/20 12:26:15;;;;;;;2.20;1.90;;;;;;;26.02;42.76;96642.40;104308;1273;644013;-75
2023/07/20 12:29:12;;;;;;;3.00;2.00;;;;;;;26.47;42.44;96646.30;102428;1257;5369823;-74
2023/07/20 12:32:07;;;;;;;3.90;1.80;;;;;;;26.30;41.94;96649.61;105801;1260;95763;-72
2023/07/20 12:34:54;;;;;;;4.30;1.90;;;;;;;26.12;41.64;96652.20;105806;1254;98554;-74
2023/07/20 12:38:00;;;;;;;4.30;2.10;;;;;;;26.05;41.75;96655.22;105915;1261;100217;-75
2023/07/20 12:40:46;;;;;;;2.20;1.70;;;;;;;25.91;41.82;96653.42;105657;1267;99012;-72
2023/07/20 12:43:33;;;;;;;3.40;2.40;;;;;;;25.77;41.88;96652.08;105409;1264;96011;-78
2023/07/20 12:46:41;;;;;;;3.50;2.00;;;;;;;25.69;42.28;96653.23;105479;1264;96046;-75
2023/07/20 12:49:46;;;;;;;3.10;2.10;;;;;;;25.54;42.29;96651.73;104897;1267;98487;-73
2023/07/20 12:52:53;;;;;;;4.80;2.30;;;;;;;25.42;42.45;96647.41;104516;1270;100325;-78
2023/07/20 12:55:35;;;;;;;4.30;2.10;;;;;;;25.17;42.95;96645.02;103490;1288;99095;-79
2023/07/20 12:58:16;;;;;;;4.20;2.20;;;;;;;24.97;43.42;96647.55;103495;1288;96177;-78
2023/07/20 13:00:58;;;;;;;3.00;2.30;;;;;;;24.72;43.70;96651.73;103485;1297;97090;-71
2023/07/20 13:03:39;;;;;;;5.70;2.60;;;;;;;24.62;44.27;96652.73;103478;1285;101732;-73
2023/07/20 13:06:21;;;;;;;4.60;2.30;;;;;;;24.80;44.41;96651.07;104071;1291;102098;-72
2023/07/20 13:09:03;;;;;;;2.70;2.10;;;;;;;24.95;44.12;96644.31;104181;1272;100767;-72
2023/07/20 13:11:29;;;;;;;2.50;2.10;;;;;;;25.05;43.88;96644.17;104421;1275;95995;-72
2023/07/20 13:13:55;;;;;;;2.70;1.70;;;;;;;25.17;43.39;96643.15;104478;1273;96864;-72
2023/07/20 13:16:22;;;;;;;6.50;2.10;;;;;;;25.35;42.95;96638.73;104490;1286;96393;-72
2023/07/20 13:18:49;;;;;;;2.60;2.40;;;;;;;25.59;42.69;96634.98;104323;1275;99138;-73
2023/07/20 13:21:15;;;;;;;6.00;2.40;;;;;;;25.76;42.41;96630.88;104780;1267;96711;-74
2023/07/20 13:23:41;;;;;;;3.00;2.10;;;;;;;25.98;42.11;96629.88;104820;1269;96044;-75
2023/07/20 13:26:08;;;;;;;3.40;2.60;;;;;;;26.12;41.98;96629.00;105081;1260;96777;-74
2023/07/20 13:28:34;;;;;;;3.20;2.00;;;;;;;26.24;41.67;96632.03;105289;1258;99288;-76
2023/07/20 13:31:00;;;;;;;3.40;2.40;;;;;;;26.39;41.30;96633.92;106168;1257;95948;-81
2023/07/20 13:33:27;;;;;;;2.70;1.80;;;;;;;26.45;40.95;96632.02;107201;1249;95808;-81
2023/07/20 13:35:53;;;;;;;2.50;1.90;;;;;;;26.53;40.91;96634.13;107753;1244;95952;-82
2023/07/20 13:38:20;;;;;;;2.40;2.00;;;;;;;26.60;40.82;96632.36;107608;1243;98789;-82
2023/07/20 13:40:46;;;;;;;4.40;2.10;;;;;;;26.62;40.80;96631.02;107543;1243;95930;-81
2023/07/20 13:43:13;;;;;;;2.60;2.30;;;;;;;26.49;40.61;96628.80;107669;1242;95827;-82
2023/07/20 13:45:39;;;;;;;3.40;2.30;;;;;;;26.37;41.01;96638.75;107774;1239;96226;-81
2023/07/20 13:48:05;;;;;;;7.20;2.50;;;;;;;26.16;41.07;96639.65;107544;1251;98891;-76
2023/07/20 13:50:32;;;;;;;5.50;2.40;;;;;;;25.89;41.91;96644.25;107597;1242;96015;-87
2023/07/20 13:52:58;;;;;;;3.50;2.10;;;;;;;25.64;42.53;96649.73;107735;1240;95774;-88
2023/07/20 13:55:24;;;;;;;4.70;2.10;;;;;;;25.45;42.67;96647.45;107683;1242;96533;-88
2023/07/20 13:57:50;;;;;;;3.50;2.10;;;;;;;25.30;42.73;96653.00;107645;1242;108853;-86
2023/07/20 14:00:17;;;;;;;2.70;2.40;;;;;;;25.12;43.41;96653.27;107777;1238;96150;-85
2023/07/20 14:02:44;;;;;;;2.60;2.30;;;;;;;24.97;43.51;96658.23;107486;1243;95884;-83
2023/07/20 14:05:11;;;;;;;3.00;2.70;;;;;;;24.90;43.76;96659.02;107536;1244;96245;-83
2023/07/20 14:07:37;;;;;;;5.20;2.40;;;;;;;24.81;44.08;96658.45;107674;1250;95822;-86
2023/07/20 14:10:04;;;;;;;4.20;2.10;;;;;;;24.94;43.98;96656.98;107585;1243;95806;-87
2023/07/20 14:12:30;;;;;;;2.40;2.00;;;;;;;25.12;42.95;96655.78;107626;1238;97128;-82
2023/07/20 14:14:57;;;;;;;3.00;2.10;;;;;;;25.29;41.75;96656.19;107650;1242;95936;-86
2023/07/20 14:17:23;;;;;;;2.20;1.90;;;;;;;25.50;41.40;96651.70;107682;1243;96993;-83
2023/07/20 14:19:51;;;;;;;2.90;2.00;;;;;;;25.72;41.33;96650.30;107617;1242;97131;-82
2023/07/20 14:22:17;;;;;;;4.80;2.00;;;;;;;25.92;41.92;96647.60;107443;1245;95920;-84
2023/07/20 14:24:43;;;;;;;2.30;2.10;;;;;;;26.00;41.44;96643.86;107659;1243;95826;-84
2023/07/20 14:27:10;;;;;;;2.40;1.70;;;;;;;26.03;41.39;96642.80;108005;1239;96052;-81
2023/07/20 14:30:17;;;;;;;3.10;2.00;;;;;;;25.98;41.49;96644.26;108053;1236;96042;-75
2023/07/20 14:33:25;;;;;;;4.10;2.20;;;;;;;25.74;40.94;96646.71;107335;1245;96664;-73
2023/07/20 14:36:30;;;;;;;5.10;2.20;;;;;;;25.66;40.90;96648.96;106550;1253;99822;-73
2023/07/20 14:39:17;;;;;;;2.10;1.80;;;;;;;25.61;40.65;96648.11;105878;1271;100355;-73
2023/07/20 14:42:13;;;;;;;3.50;2.30;;;;;;;25.51;40.10;96646.77;105851;1269;99055;-73
2023/07/20 14:45:20;;;;;;;2.10;1.80;;;;;;;25.37;40.47;96647.96;105617;1261;96949;-74
2023/07/20 14:48:26;;;;;;;5.80;3.00;;;;;;;25.21;40.21;96646.17;105578;1262;95952;-74
2023/07/20 14:51:35;;;;;;;8.10;2.60;;;;;;;25.07;40.20;96649.18;105367;1264;99745;-73
2023/07/20 14:54:38;;;;;;;3.50;2.70;;;;;;;24.98;40.63;96645.10;104605;1274;100376;-73
2023/07/20 15:15:09;;;;;;;4.50;3.50;;;;;;;24.12;43.30;96656.61;103367;1289;100779;-76
2023/07/20 15:31:43;;;;;;;5.30;3.00;;;;;;;24.18;44.44;96666.23;102284;1288;642601;-74
2023/07/20 15:34:54;;;;;;;5.90;3.20;;;;;;;24.14;44.70;96671.87;103917;1275;95988;-74
2023/07/20 15:41:50;;;;;;;4.40;3.30;;;;;;;24.37;43.78;96675.42;101584;1298;635889;-75
2023/07/20 16:06:39;;;;;;;3.60;2.10;;;;;;;23.24;44.50;96836.52;101828;1303;636015;-82
2023/07/20 16:53:15;;;;;;;3.60;1.40;;;;;;;19.64;59.23;96768.06;101218;1300;642078;-76
2023/07/20 17:00:21;;;;;;;5.10;2.70;;;;;;;19.62;60.66;96773.00;101201;1298;637514;-78
2023/07/20 18:05:33;;;;;;;3.60;3.00;;;;;;;18.43;64.79;96827.35;101527;1296;638574;-73
2023/07/20 18:08:42;;;;;;;4.80;4.40;;;;;;;18.38;65.30;96825.99;103844;1291;96070;-73
2023/07/20 18:14:10;;;;;;;7.20;4.60;;;;;;;18.41;65.95;96827.52;100798;1300;640019;-74
2023/07/20 18:17:18;;;;;;;6.70;3.90;;;;;;;18.30;66.13;96833.54;103121;1283;97439;-80
2023/07/20 18:33:29;;;;;;;7.30;3.40;;;;;;;18.08;66.54;96831.53;101587;1294;636852;-77
2023/07/20 18:35:57;;;;;;;4.40;3.10;;;;;;;18.04;66.47;96833.17;104393;1266;95988;-85
2023/07/20 18:38:25;;;;;;;8.40;5.50;;;;;;;17.90;66.20;96839.77;104370;1270;97282;-87
2023/07/20 18:40:52;;;;;;;8.40;5.40;;;;;;;17.71;65.97;96838.26;104404;1268;99599;-87
2023/07/20 18:43:20;;;;;;;9.20;4.70;;;;;;;17.56;66.36;96839.06;104399;1271;101606;-88
2023/07/20 18:45:48;;;;;;;7.20;4.80;;;;;;;17.50;66.62;96838.95;104261;1266;157376;-88
2023/07/20 18:48:16;;;;;;;5.50;3.80;;;;;;;17.43;66.99;96840.57;104439;1263;95922;-87
2023/07/20 18:50:43;;;;;;;5.50;3.90;;;;;;;17.41;67.11;96842.46;104276;1271;95948;-88
2023/07/20 18:53:11;;;;;;;4.20;3.40;;;;;;;17.40;67.06;96851.89;104516;1269;99330;-88
2023/07/20 18:55:39;;;;;;;3.80;3.20;;;;;;;17.34;67.32;96853.70;104279;1283;100277;-88
2023/07/20 18:58:07;;;;;;;4.70;2.80;;;;;;;17.31;67.14;96857.70;104463;1266;98968;-88
2023/07/20 19:00:34;;;;;;;5.70;2.70;;;;;;;17.27;67.17;96862.28;104450;1269;97142;-78
2023/07/20 19:03:02;;;;;;;2.70;2.30;;;;;;;17.23;67.24;96870.23;104466;1264;96850;-79
2023/07/20 19:05:31;;;;;;;6.10;2.30;;;;;;;17.15;67.08;96874.40;104414;1270;99151;-79
2023/07/20 19:08:40;;;;;;;3.10;2.70;;;;;;;17.07;67.27;96877.84;104108;1273;100167;-75
2023/07/20 19:38:15;;;;;;;3.60;3.20;;;;;;;16.73;67.79;96911.98;103919;1281;643780;-70
2023/07/20 19:41:22;;;;;;;4.10;3.30;;;;;;;16.59;68.30;96921.84;101215;1270;5379528;-72
2023/07/20 19:44:29;;;;;;;3.40;3.00;;;;;;;16.50;68.41;96917.73;104488;1283;98507;-76
2023/07/20 19:46:57;;;;;;;3.80;3.00;;;;;;;16.37;68.86;96915.90;103938;1284;109003;-79
2023/07/20 19:49:24;;;;;;;3.20;2.80;;;;;;;16.35;68.96;96918.48;104023;1282;99161;-78
2023/07/20 19:52:06;;;;;;;3.10;2.80;;;;;;;16.31;68.99;96920.67;103969;1290;96257;-77
2023/07/20 19:54:32;;;;;;;5.90;2.80;;;;;;;16.20;68.67;96920.42;103900;1280;96104;-78
2023/07/20 19:56:59;;;;;;;5.60;3.10;;;;;;;16.01;68.89;96925.91;103967;1280;96894;-77
2023/07/20 19:59:26;;;;;;;4.00;3.30;;;;;;;15.91;69.03;96925.54;103858;1283;95918;-78
2023/07/20 20:01:53;;;;;;;4.40;3.40;;;;;;;15.80;69.43;96930.60;104431;1278;96085;-87
2023/07/20 20:04:19;;;;;;;7.00;3.10;;;;;;;15.76;69.48;96931.35;104278;1282;97247;-87
2023/07/20 20:07:07;;;;;;;3.80;3.10;;;;;;;15.64;69.64;96928.45;103994;1282;101787;-86
2023/07/20 20:09:34;;;;;;;3.50;2.50;;;;;;;15.58;70.10;96929.04;104312;1278;99921;-86
2023/07/20 20:12:00;;;;;;;3.10;2.60;;;;;;;15.57;70.09;96929.91;105000;1279;96127;-86
2023/07/20 20:14:42;;;;;;;4.40;2.70;;;;;;;15.50;70.36;96935.45;103888;1283;96023;-86
2023/07/20 20:17:08;;;;;;;4.20;3.30;;;;;;;15.49;70.45;96939.14;103977;1273;96056;-77
2023/07/20 20:19:34;;;;;;;4.70;3.20;;;;;;;15.49;70.44;96940.28;104691;1267;95895;-76
2023/07/20 20:22:02;;;;;;;5.10;3.60;;;;;;;15.48;70.34;96942.22;105572;1258;96473;-80
2023/07/20 20:25:09;;;;;;;5.20;3.30;;;;;;;15.47;70.38;96940.79;106469;1241;95964;-78
2023/07/20 20:28:16;;;;;;;6.90;3.50;;;;;;;15.39;70.39;96944.29;105739;1259;95868;-79
2023/07/20 20:31:23;;;;;;;4.00;3.20;;;;;;;15.36;70.61;96943.70;104870;1266;99669;-71
2023/07/20 20:35:00;;;;;;;4.40;3.30;;;;;;;15.34;70.48;96947.66;101130;1312;638730;-72
2023/07/20 20:38:08;;;;;;;6.00;2.90;;;;;;;15.29;70.77;96947.77;103298;1281;96201;-71
2023/07/20 20:53:35;;;;;;;3.90;3.30;;;;;;;15.08;70.78;96958.77;101681;1291;636104;-79
2023/07/20 20:56:03;;;;;;;3.70;3.20;;;;;;;15.02;70.88;96952.39;104275;1270;97250;-79
2023/07/20 20:58:30;;;;;;;8.90;3.40;;;;;;;15.01;70.90;96953.44;103941;1274;95939;-79
2023/07/20 21:01:01;;;;;;;4.10;3.40;;;;;;;14.97;70.86;96954.38;104389;1269;98065;-77
2023/07/20 21:03:30;;;;;;;4.50;3.30;;;;;;;14.92;70.92;96957.61;104251;1282;100425;-77
2023/07/20 21:05:58;;;;;;;5.30;2.90;;;;;;;14.88;71.04;96956.46;104379;1272;100215;-77
2023/07/20 21:08:27;;;;;;;6.70;3.10;;;;;;;14.83;71.08;96958.47;104269;1266;96021;-76
2023/07/20 21:10:58;;;;;;;4.10;2.80;;;;;;;14.80;71.09;96952.33;104650;1262;95850;-80
2023/07/20 21:13:27;;;;;;;5.20;3.30;;;;;;;14.78;71.10;96953.34;104150;1262;97773;-80
2023/07/20 21:15:56;;;;;;;6.10;3.40;;;;;;;14.73;71.12;96955.97;104536;1268;100067;-79
2023/07/20 21:18:23;;;;;;;4.10;3.20;;;;;;;14.68;71.27;96954.72;104137;1282;99195;-80
2023/07/20 21:20:51;;;;;;;6.00;2.70;;;;;;;14.65;71.30;96956.55;104521;1269;95868;-79
2023/07/20 21:23:59;;;;;;;5.60;3.00;;;;;;;14.61;71.55;96957.09;104477;1265;96879;-75
2023/07/20 21:27:09;;;;;;;3.50;2.80;;;;;;;14.60;71.59;96954.91;103411;1283;100036;-74
2023/07/20 21:43:39;;;;;;;3.90;3.10;;;;;;;13.82;71.93;96957.10;101667;1295;640225;-73
2023/07/20 21:46:48;;;;;;;5.90;3.00;;;;;;;13.78;72.93;96958.42;103703;1276;95859;-72
2023/07/20 21:49:58;;;;;;;6.10;3.00;;;;;;;13.81;72.98;96954.15;103136;1283;95935;-75
2023/07/20 21:55:32;;;;;;;4.10;3.00;;;;;;;13.74;73.08;96961.58;102125;1294;154724;-76
2023/07/20 22:00:40;;;;;;;3.20;2.90;;;;;;;13.73;73.47;96971.48;102247;1287;96881;-76
2023/07/20 22:08:59;;;;;;;4.30;3.00;;;;;;;13.79;73.06;96966.70;102194;1292;101010;-78
2023/07/20 22:11:42;;;;;;;3.80;3.00;;;;;;;13.77;72.95;96967.96;102396;1289;100667;-76
2023/07/20 22:14:24;;;;;;;3.80;2.80;;;;;;;13.73;73.04;96965.19;102266;1292;96701;-75
2023/07/20 22:16:52;;;;;;;5.50;2.70;;;;;;;13.67;72.80;96968.47;102254;1289;96860;-79
2023/07/20 22:22:22;;;;;;;5.70;2.90;;;;;;;13.50;73.37;96967.71;101915;1294;636377;-79
2023/07/20 22:25:30;;;;;;;3.70;3.20;;;;;;;13.42;73.06;96963.84;104493;1268;95843;-76
2023/07/20 22:28:39;;;;;;;5.10;3.20;;;;;;;13.31;73.54;96964.83;103087;1280;96952;-76
2023/07/20 22:47:49;;;;;;;7.40;3.70;;;;;;;13.36;73.84;96967.86;101244;1312;637482;-76
2023/07/20 22:50:58;;;;;;;7.70;4.00;;;;;;;13.36;73.82;96971.05;102832;1283;96049;-75
2023/07/20 22:53:29;;;;;;;8.20;3.90;;;;;;;13.31;73.70;96972.03;102310;1290;95957;-80
2023/07/20 22:55:58;;;;;;;6.20;3.60;;;;;;;13.25;73.74;96969.04;102348;1305;98379;-80
2023/07/20 22:58:25;;;;;;;6.90;3.70;;;;;;;13.25;73.81;96969.97;102059;1287;100310;-79
2023/07/20 23:00:53;;;;;;;7.00;4.70;;;;;;;13.24;73.78;96967.94;102379;1289;142665;-78
2023/07/20 23:03:21;;;;;;;5.70;3.10;;;;;;;13.22;73.64;96971.40;102410;1289;96148;-78
2023/07/20 23:05:49;;;;;;;3.40;3.10;;;;;;;13.19;73.66;96974.65;102397;1289;95993;-78
2023/07/20 23:08:16;;;;;;;6.20;3.60;;;;;;;13.13;73.61;96973.96;102559;1283;98433;-78
2023/07/20 23:10:44;;;;;;;3.70;3.10;;;;;;;13.10;73.66;96971.31;102597;1289;101210;-76
2023/07/20 23:13:12;;;;;;;5.20;3.10;;;;;;;13.08;73.65;96975.88;102720;1286;98488;-77
2023/07/20 23:15:40;;;;;;;9.40;3.20;;;;;;;13.06;73.81;96977.09;102481;1288;97050;-76
2023/07/20 23:18:08;;;;;;;6.70;3.20;;;;;;;13.04;73.80;96976.66;102498;1286;97537;-77
2023/07/20 23:20:35;;;;;;;5.60;2.80;;;;;;;13.02;73.83;96976.85;102600;1289;100163;-77
2023/07/20 23:23:04;;;;;;;3.60;2.80;;;;;;;12.99;73.96;96976.14;102693;1286;100290;-77
2023/07/20 23:25:32;;;;;;;3.80;2.80;;;;;;;12.98;74.02;96975.33;102504;1292;99321;-77
2023/07/20 23:27:59;;;;;;;5.80;3.20;;;;;;;12.97;73.87;96976.89;102866;1281;97564;-77
2023/07/20 23:30:27;;;;;;;4.10;3.10;;;;;;;12.95;73.92;96978.14;104033;1274;96021;-79
2023/07/20 23:33:38;;;;;;;3.60;2.90;;;;;;;12.89;73.87;96979.20;104388;1270;99416;-70
2023/07/20 23:36:46;;;;;;;5.10;3.10;;;;;;;12.86;74.10;96973.05;103893;1275;100398;-70
2023/07/20 23:39:53;;;;;;;4.60;2.30;;;;;;;12.85;74.17;96971.85;103913;1274;99456;-68
2023/07/20 23:43:02;;;;;;;5.50;2.80;;;;;;;12.84;74.14;96974.38;103014;1281;96765;-71
